Time;durP1;ratioP1;P1;durP2;ratioP2;P2;SDS_P1;SDS_P2;PMS_P1;PMS_P2;Temp;Humidity;BMP_temperature;BMP_pressure;BME280_temperature;BME280_humidity;BME280_pressure;Samples;Min_cycle;Max_cycle;Signal;HPM_P1;HPM_P2
2024/04/15 00:01:57;;;;;;;;;;;;;;;;;;5481901;26;19932;-73
2024/04/15 00:04:26;;;;;;;;;;;;;;;;;;5482060;26;19955;-74
2024/04/15 00:06:52;;;;;;;;;;;;;;;;;;5467422;26;20379;-73
2024/04/15 00:09:21;;;;;;;;;;;;;;;;;;5473762;26;19999;-73
2024/04/15 00:11:47;;;;;;;;;;;;;;;;;;5461970;26;19936;-72
2024/04/15 00:14:16;;;;;;;;;;;;;;;;;;5479984;26;20385;-73
2024/04/15 00:16:42;;;;;;;;;;;;;;;;;;5463859;26;19929;-73
2024/04/15 00:19:11;;;;;;;;;;;;;;;;;;5484057;26;19935;-73
2024/04/15 00:21:37;;;;;;;;;;;;;;;;;;5483158;26;19928;-73
2024/04/15 00:24:06;;;;;;;;;;;;;;;;;;5469718;26;19934;-73
2024/04/15 00:26:32;;;;;;;;;;;;;;;;;;5483339;26;20366;-72
2024/04/15 00:29:01;;;;;;;;;;;;;;;;;;5482464;26;19943;-72
2024/04/15 00:31:27;;;;;;;;;;;;;;;;;;5481284;26;19928;-72
2024/04/15 00:33:56;;;;;;;;;;;;;;;;;;5475317;26;19999;-72
2024/04/15 00:36:22;;;;;;;;;;;;;;;;;;5479341;26;19943;-72
2024/04/15 00:38:51;;;;;;;;;;;;;;;;;;5481026;26;19936;-71
2024/04/15 00:41:17;;;;;;;;;;;;;;;;;;5480366;26;19928;-73
2024/04/15 00:43:46;;;;;;;;;;;;;;;;;;5479926;26;19969;-72
2024/04/15 00:46:12;;;;;;;;;;;;;;;;;;5480354;26;19927;-72
2024/04/15 00:48:40;;;;;;;;;;;;;;;;;;5457586;26;19932;-73
2024/04/15 00:51:06;;;;;;;;;;;;;;;;;;5479820;26;19935;-72
2024/04/15 00:53:35;;;;;;;;;;;;;;;;;;5479898;26;20452;-73
2024/04/15 00:56:01;;;;;;;;;;;;;;;;;;5473299;26;20454;-73
2024/04/15 00:58:30;;;;;;;;;;;;;;;;;;5479567;26;19934;-72
2024/04/15 01:00:56;;;;;;;;;;;;;;;;;;5481154;26;19940;-73
2024/04/15 01:03:25;;;;;;;;;;;;;;;;;;5480931;26;19934;-73
2024/04/15 01:05:51;;;;;;;;;;;;;;;;;;5478821;26;19935;-72
2024/04/15 01:08:19;;;;;;;;;;;;;;;;;;5478349;26;19996;-72
2024/04/15 01:10:45;;;;;;;;;;;;;;;;;;5480801;26;19927;-72
2024/04/15 01:13:14;;;;;;;;;;;;;;;;;;5461879;26;20283;-73
2024/04/15 01:15:40;;;;;;;;;;;;;;;;;;5459090;26;19936;-73
2024/04/15 01:18:09;;;;;;;;;;;;;;;;;;5455550;26;20483;-73
2024/04/15 01:20:35;;;;;;;;;;;;;;;;;;5483179;26;19935;-74
2024/04/15 01:23:03;;;;;;;;;;;;;;;;;;5478557;26;20530;-72
2024/04/15 01:25:30;;;;;;;;;;;;;;;;;;5478641;26;19928;-72
2024/04/15 01:27:58;;;;;;;;;;;;;;;;;;5481888;26;20393;-71
2024/04/15 01:30:24;;;;;;;;;;;;;;;;;;5482602;26;19935;-71
2024/04/15 01:32:53;;;;;;;;;;;;;;;;;;5483804;26;20390;-72
2024/04/15 01:35:20;;;;;;;;;;;;;;;;;;5483684;26;19939;-72
2024/04/15 01:37:48;;;;;;;;;;;;;;;;;;5483362;26;20383;-71
2024/04/15 01:40:14;;;;;;;;;;;;;;;;;;5479555;26;20438;-71
2024/04/15 01:42:43;;;;;;;;;;;;;;;;;;5485071;26;19927;-71
2024/04/15 01:45:09;;;;;;;;;;;;;;;;;;5484392;26;20445;-72
2024/04/15 01:47:38;;;;;;;;;;;;;;;;;;5464999;26;19940;-70
2024/04/15 01:50:04;;;;;;;;;;;;;;;;;;5485840;26;19928;-71
2024/04/15 01:52:33;;;;;;;;;;;;;;;;;;5484089;26;19947;-71
2024/04/15 01:54:59;;;;;;;;;;;;;;;;;;5481371;26;19939;-71
2024/04/15 01:57:27;;;;;;;;;;;;;;;;;;5478142;26;19934;-71
2024/04/15 01:59:53;;;;;;;;;;;;;;;;;;5475632;26;19940;-72
2024/04/15 02:02:22;;;;;;;;;;;;;;;;;;5480272;26;19936;-71
2024/04/15 02:04:48;;;;;;;;;;;;;;;;;;5460527;26;19928;-72
2024/04/15 02:07:17;;;;;;;;;;;;;;;;;;5482627;26;20484;-72
2024/04/15 02:09:43;;;;;;;;;;;;;;;;;;5482376;26;19939;-72
2024/04/15 02:12:12;;;;;;;;;;;;;;;;;;5480105;26;20511;-72
2024/04/15 02:14:38;;;;;;;;;;;;;;;;;;5463971;26;19928;-72
2024/04/15 02:17:06;;;;;;;;;;;;;;;;;;5474073;26;20367;-71
2024/04/15 02:19:32;;;;;;;;;;;;;;;;;;5483377;26;19931;-71
2024/04/15 02:22:01;;;;;;;;;;;;;;;;;;5480528;26;20358;-73
2024/04/15 02:24:27;;;;;;;;;;;;;;;;;;5482873;26;19935;-71
2024/04/15 02:26:56;;;;;;;;;;;;;;;;;;5482028;26;19932;-72
2024/04/15 02:29:22;;;;;;;;;;;;;;;;;;5478772;26;19928;-72
2024/04/15 02:31:51;;;;;;;;;;;;;;;;;;5481588;26;20023;-71
2024/04/15 02:34:17;;;;;;;;;;;;;;;;;;5480917;26;19942;-72
2024/04/15 02:36:46;;;;;;;;;;;;;;;;;;5481828;26;19928;-71
2024/04/15 02:39:12;;;;;;;;;;;;;;;;;;5482139;26;19935;-72
2024/04/15 02:41:41;;;;;;;;;;;;;;;;;;5477701;26;19928;-72
2024/04/15 02:44:07;;;;;;;;;;;;;;;;;;5472760;26;20405;-72
2024/04/15 02:46:36;;;;;;;;;;;;;;;;;;5481663;26;19932;-72
2024/04/15 02:49:02;;;;;;;;;;;;;;;;;;5482950;26;19927;-72
2024/04/15 02:51:31;;;;;;;;;;;;;;;;;;5483351;26;19935;-71
2024/04/15 02:53:57;;;;;;;;;;;;;;;;;;5479065;26;20263;-72
2024/04/15 02:56:26;;;;;;;;;;;;;;;;;;5484450;26;19970;-72
2024/04/15 02:58:52;;;;;;;;;;;;;;;;;;5482544;26;19928;-71
2024/04/15 03:01:21;;;;;;;;;;;;;;;;;;5483211;26;20244;-72
2024/04/15 03:03:47;;;;;;;;;;;;;;;;;;5481273;26;20252;-72
2024/04/15 03:06:15;;;;;;;;;;;;;;;;;;5480968;26;19928;-73
2024/04/15 03:08:41;;;;;;;;;;;;;;;;;;5482697;26;19932;-72
2024/04/15 03:11:10;;;;;;;;;;;;;;;;;;5480385;26;19986;-73
2024/04/15 03:13:36;;;;;;;;;;;;;;;;;;5480975;26;19935;-72
2024/04/15 03:16:05;;;;;;;;;;;;;;;;;;5481461;26;19983;-72
2024/04/15 03:18:31;;;;;;;;;;;;;;;;;;5481597;26;19935;-72
2024/04/15 03:21:00;;;;;;;;;;;;;;;;;;5473055;26;20438;-72
2024/04/15 03:23:26;;;;;;;;;;;;;;;;;;5481614;26;19964;-73
2024/04/15 03:25:54;;;;;;;;;;;;;;;;;;5481747;26;19927;-73
2024/04/15 03:28:20;;;;;;;;;;;;;;;;;;5479263;26;19939;-72
2024/04/15 03:30:49;;;;;;;;;;;;;;;;;;5476642;26;19935;-72
2024/04/15 03:33:15;;;;;;;;;;;;;;;;;;5483092;26;19928;-72
2024/04/15 03:35:44;;;;;;;;;;;;;;;;;;5482907;26;19928;-72
2024/04/15 03:38:12;;;;;;;;;;;;;;;;;;5482721;26;19928;-72
2024/04/15 03:40:41;;;;;;;;;;;;;;;;;;5485269;26;20029;-73
2024/04/15 03:43:10;;;;;;;;;;;;;;;;;;5483747;26;19935;-73
2024/04/15 03:45:36;;;;;;;;;;;;;;;;;;5485565;26;19928;-72
2024/04/15 03:48:05;;;;;;;;;;;;;;;;;;5484099;26;19946;-74
2024/04/15 03:50:31;;;;;;;;;;;;;;;;;;5484292;26;20274;-73
2024/04/15 03:53:00;;;;;;;;;;;;;;;;;;5488239;26;19936;-74
2024/04/15 03:55:26;;;;;;;;;;;;;;;;;;5480975;26;19935;-73
2024/04/15 03:57:54;;;;;;;;;;;;;;;;;;5483637;26;19934;-73
2024/04/15 04:00:21;;;;;;;;;;;;;;;;;;5484094;26;20371;-73
2024/04/15 04:02:49;;;;;;;;;;;;;;;;;;5481772;26;19939;-72
2024/04/15 04:05:15;;;;;;;;;;;;;;;;;;5482149;26;19946;-73
2024/04/15 04:07:44;;;;;;;;;;;;;;;;;;5470318;26;19935;-74
2024/04/15 04:10:10;;;;;;;;;;;;;;;;;;5481958;26;19935;-73
2024/04/15 04:12:39;;;;;;;;;;;;;;;;;;5476677;26;20259;-72
2024/04/15 04:15:05;;;;;;;;;;;;;;;;;;5479644;26;20390;-72
2024/04/15 04:17:33;;;;;;;;;;;;;;;;;;5481269;26;19940;-72
2024/04/15 04:20:00;;;;;;;;;;;;;;;;;;5480558;26;20287;-72
2024/04/15 04:22:28;;;;;;;;;;;;;;;;;;5479987;26;20084;-73
2024/04/15 04:24:54;;;;;;;;;;;;;;;;;;5469130;26;19939;-73
2024/04/15 04:27:23;;;;;;;;;;;;;;;;;;5479643;26;19947;-72
2024/04/15 04:29:49;;;;;;;;;;;;;;;;;;5479350;26;19973;-73
2024/04/15 04:32:19;;;;;;;;;;;;;;;;;;5479208;26;20446;-75
2024/04/15 04:34:45;;;;;;;;;;;;;;;;;;5480341;26;19928;-74
2024/04/15 04:37:14;;;;;;;;;;;;;;;;;;5480357;26;19947;-74
2024/04/15 04:39:40;;;;;;;;;;;;;;;;;;5481594;26;19939;-74
2024/04/15 04:42:09;;;;;;;;;;;;;;;;;;5480417;26;20004;-74
2024/04/15 04:44:35;;;;;;;;;;;;;;;;;;5481353;26;20318;-75
2024/04/15 04:47:04;;;;;;;;;;;;;;;;;;5480686;26;20477;-74
2024/04/15 04:49:30;;;;;;;;;;;;;;;;;;5483228;26;19959;-74
2024/04/15 04:51:58;;;;;;;;;;;;;;;;;;5483045;26;20000;-75
2024/04/15 04:54:24;;;;;;;;;;;;;;;;;;5482296;26;20378;-75
2024/04/15 04:56:53;;;;;;;;;;;;;;;;;;5481411;26;20066;-75
2024/04/15 04:59:19;;;;;;;;;;;;;;;;;;5481487;26;20003;-75
2024/04/15 05:01:48;;;;;;;;;;;;;;;;;;5480926;26;19928;-75
2024/04/15 05:04:14;;;;;;;;;;;;;;;;;;5455565;26;19936;-75
2024/04/15 05:06:43;;;;;;;;;;;;;;;;;;5483563;26;19936;-74
2024/04/15 05:09:09;;;;;;;;;;;;;;;;;;5482099;26;20399;-75
2024/04/15 05:11:37;;;;;;;;;;;;;;;;;;5480889;26;19935;-74
2024/04/15 05:14:03;;;;;;;;;;;;;;;;;;5480879;26;19928;-74
2024/04/15 05:16:32;;;;;;;;;;;;;;;;;;5481151;26;20334;-74
2024/04/15 05:18:58;;;;;;;;;;;;;;;;;;5477380;26;19947;-74
2024/04/15 05:21:27;;;;;;;;;;;;;;;;;;5478301;26;20375;-73
2024/04/15 05:23:53;;;;;;;;;;;;;;;;;;5480710;26;19932;-75
2024/04/15 05:26:22;;;;;;;;;;;;;;;;;;5480671;26;19940;-73
2024/04/15 05:28:48;;;;;;;;;;;;;;;;;;5480696;26;19935;-74
2024/04/15 05:31:16;;;;;;;;;;;;;;;;;;5481160;26;19939;-75
2024/04/15 05:33:42;;;;;;;;;;;;;;;;;;5482198;26;20358;-75
2024/04/15 05:36:11;;;;;;;;;;;;;;;;;;5479347;26;19928;-73
2024/04/15 05:38:37;;;;;;;;;;;;;;;;;;5453477;26;19928;-75
2024/04/15 05:41:06;;;;;;;;;;;;;;;;;;5481950;26;20329;-74
2024/04/15 05:43:32;;;;;;;;;;;;;;;;;;5473307;26;20361;-74
2024/04/15 05:46:01;;;;;;;;;;;;;;;;;;5461557;26;19936;-74
2024/04/15 05:48:27;;;;;;;;;;;;;;;;;;5457043;26;20336;-74
2024/04/15 05:50:56;;;;;;;;;;;;;;;;;;5467785;26;19935;-74
2024/04/15 05:53:22;;;;;;;;;;;;;;;;;;5460920;26;19953;-72
2024/04/15 05:55:51;;;;;;;;;;;;;;;;;;5463380;26;20491;-69
2024/04/15 05:58:17;;;;;;;;;;;;;;;;;;5460669;26;19935;-70
2024/04/15 06:00:46;;;;;;;;;;;;;;;;;;5474333;26;19936;-70
2024/04/15 06:03:12;;;;;;;;;;;;;;;;;;5451856;26;20339;-70
2024/04/15 06:05:41;;;;;;;;;;;;;;;;;;5475090;26;19943;-69
2024/04/15 06:08:07;;;;;;;;;;;;;;;;;;5465578;26;19927;-69
2024/04/15 06:10:35;;;;;;;;;;;;;;;;;;5474995;26;20419;-70
2024/04/15 06:13:01;;;;;;;;;;;;;;;;;;5467274;26;19935;-70
2024/04/15 06:15:36;;;;;;;;;;;;;;;;;;5473322;26;19955;-70
2024/04/15 06:18:02;;;;;;;;;;;;;;;;;;5473328;26;19962;-71
2024/04/15 06:20:31;;;;;;;;;;;;;;;;;;5480628;26;19935;-70
2024/04/15 06:22:57;;;;;;;;;;;;;;;;;;5462397;26;19974;-69
2024/04/15 06:25:26;;;;;;;;;;;;;;;;;;5481997;26;20300;-68
2024/04/15 06:27:52;;;;;;;;;;;;;;;;;;5481112;26;19928;-69
2024/04/15 06:30:21;;;;;;;;;;;;;;;;;;5465126;26;20007;-68
2024/04/15 06:32:47;;;;;;;;;;;;;;;;;;5465448;26;19955;-69
2024/04/15 06:35:15;;;;;;;;;;;;;;;;;;5464559;26;20061;-70
2024/04/15 06:37:41;;;;;;;;;;;;;;;;;;5476542;26;19928;-70
2024/04/15 06:40:10;;;;;;;;;;;;;;;;;;5469521;26;19940;-70
2024/04/15 06:42:36;;;;;;;;;;;;;;;;;;5471451;26;19935;-70
2024/04/15 06:45:05;;;;;;;;;;;;;;;;;;5479275;26;19928;-70
2024/04/15 06:47:31;;;;;;;;;;;;;;;;;;5456992;26;20275;-70
2024/04/15 06:50:00;;;;;;;;;;;;;;;;;;5474567;26;20000;-70
2024/04/15 06:52:26;;;;;;;;;;;;;;;;;;5459426;26;20009;-71
2024/04/15 06:54:54;;;;;;;;;;;;;;;;;;5465924;26;20272;-72
2024/04/15 06:57:20;;;;;;;;;;;;;;;;;;5468573;26;19928;-69
2024/04/15 06:59:49;;;;;;;;;;;;;;;;;;5480430;26;20340;-70
2024/04/15 07:02:20;;;;;;;;;;;;;;;;;;5473773;26;20021;-71
2024/04/15 07:04:49;;;;;;;;;;;;;;;;;;5472848;26;20043;-70
2024/04/15 07:07:15;;;;;;;;;;;;;;;;;;5458675;26;21820;-71
2024/04/15 07:09:43;;;;;;;;;;;;;;;;;;5478588;26;19928;-70
2024/04/15 07:12:10;;;;;;;;;;;;;;;;;;5461325;26;20401;-70
2024/04/15 07:14:38;;;;;;;;;;;;;;;;;;5477252;26;19935;-71
2024/04/15 07:17:04;;;;;;;;;;;;;;;;;;5475662;26;19939;-70
2024/04/15 07:19:33;;;;;;;;;;;;;;;;;;5465016;26;19957;-70
2024/04/15 07:21:59;;;;;;;;;;;;;;;;;;5470676;26;19932;-70
2024/04/15 07:24:29;;;;;;;;;;;;;;;;;;5465742;26;19931;-71
2024/04/15 07:26:55;;;;;;;;;;;;;;;;;;5451445;26;20236;-71
2024/04/15 07:29:24;;;;;;;;;;;;;;;;;;5454180;26;19933;-71
2024/04/15 07:31:50;;;;;;;;;;;;;;;;;;5454789;26;19928;-71
2024/04/15 07:34:20;;;;;;;;;;;;;;;;;;5469976;26;20000;-71
2024/04/15 07:36:46;;;;;;;;;;;;;;;;;;5459873;26;19935;-71
2024/04/15 07:39:14;;;;;;;;;;;;;;;;;;5459268;26;20254;-71
2024/04/15 07:41:41;;;;;;;;;;;;;;;;;;5468522;26;20122;-72
2024/04/15 07:44:09;;;;;;;;;;;;;;;;;;5469824;26;20296;-71
2024/04/15 07:46:35;;;;;;;;;;;;;;;;;;5470540;26;19963;-71
2024/04/15 07:49:04;;;;;;;;;;;;;;;;;;5478359;26;20094;-70
2024/04/15 07:51:30;;;;;;;;;;;;;;;;;;5464550;26;20273;-72
2024/04/15 07:53:59;;;;;;;;;;;;;;;;;;5477999;26;19935;-71
2024/04/15 07:56:25;;;;;;;;;;;;;;;;;;5475367;26;19939;-72
2024/04/15 07:58:53;;;;;;;;;;;;;;;;;;5444201;26;19944;-73
2024/04/15 08:01:19;;;;;;;;;;;;;;;;;;5473733;26;19927;-72
2024/04/15 08:03:48;;;;;;;;;;;;;;;;;;5481177;26;20516;-72
2024/04/15 08:06:14;;;;;;;;;;;;;;;;;;5457708;26;19929;-71
2024/04/15 08:08:43;;;;;;;;;;;;;;;;;;5477047;26;19928;-71
2024/04/15 08:11:09;;;;;;;;;;;;;;;;;;5479327;26;19947;-73
2024/04/15 08:13:38;;;;;;;;;;;;;;;;;;5480961;26;19956;-71
2024/04/15 08:16:04;;;;;;;;;;;;;;;;;;5482646;26;19928;-71
2024/04/15 08:18:32;;;;;;;;;;;;;;;;;;5481588;26;20319;-72
2024/04/15 08:20:59;;;;;;;;;;;;;;;;;;5473153;26;20387;-71
2024/04/15 08:23:27;;;;;;;;;;;;;;;;;;5456770;26;20383;-71
2024/04/15 08:25:53;;;;;;;;;;;;;;;;;;5446880;26;19936;-72
2024/04/15 08:28:22;;;;;;;;;;;;;;;;;;5459390;26;20364;-72
2024/04/15 08:30:48;;;;;;;;;;;;;;;;;;5467928;26;19935;-71
2024/04/15 08:33:17;;;;;;;;;;;;;;;;;;5479602;26;19958;-72
2024/04/15 08:35:43;;;;;;;;;;;;;;;;;;5480933;26;19935;-72
2024/04/15 08:38:11;;;;;;;;;;;;;;;;;;5474282;26;20541;-72
2024/04/15 08:40:37;;;;;;;;;;;;;;;;;;5463325;26;19935;-71
2024/04/15 08:43:06;;;;;;;;;;;;;;;;;;5457686;26;20371;-71
2024/04/15 08:45:32;;;;;;;;;;;;;;;;;;5465262;26;19928;-72
2024/04/15 08:48:01;;;;;;;;;;;;;;;;;;5471658;26;19928;-72
2024/04/15 08:50:27;;;;;;;;;;;;;;;;;;5468560;26;19959;-72
2024/04/15 08:52:56;;;;;;;;;;;;;;;;;;5466327;26;19928;-72
2024/04/15 08:55:22;;;;;;;;;;;;;;;;;;5450916;26;19935;-70
2024/04/15 08:57:50;;;;;;;;;;;;;;;;;;5472230;26;20019;-70
2024/04/15 09:00:17;;;;;;;;;;;;;;;;;;5452990;26;20375;-70
2024/04/15 09:02:46;;;;;;;;;;;;;;;;;;5471678;26;20001;-71
2024/04/15 09:05:12;;;;;;;;;;;;;;;;;;5449045;26;20263;-70
2024/04/15 09:07:41;;;;;;;;;;;;;;;;;;5465621;26;19998;-70
2024/04/15 09:10:09;;;;;;;;;;;;;;;;;;5479492;26;19939;-70
2024/04/15 09:12:36;;;;;;;;;;;;;;;;;;5478443;26;19928;-71
2024/04/15 09:15:04;;;;;;;;;;;;;;;;;;5450492;26;19935;-72
2024/04/15 09:17:30;;;;;;;;;;;;;;;;;;5453036;26;19928;-71
2024/04/15 09:19:59;;;;;;;;;;;;;;;;;;5447278;26;19929;-70
2024/04/15 09:22:25;;;;;;;;;;;;;;;;;;5473548;26;19935;-70
2024/04/15 09:24:54;;;;;;;;;;;;;;;;;;5479083;26;19940;-71
2024/04/15 09:27:22;;;;;;;;;;;;;;;;;;5458093;26;19936;-71
2024/04/15 09:29:50;;;;;;;;;;;;;;;;;;5447916;26;19943;-71
2024/04/15 09:32:16;;;;;;;;;;;;;;;;;;5461035;26;19928;-71
2024/04/15 09:34:45;;;;;;;;;;;;;;;;;;5468113;26;20022;-71
2024/04/15 09:37:11;;;;;;;;;;;;;;;;;;5455241;26;20195;-71
2024/04/15 09:39:40;;;;;;;;;;;;;;;;;;5475900;26;20328;-71
2024/04/15 09:42:06;;;;;;;;;;;;;;;;;;5454046;26;19943;-71
2024/04/15 09:44:34;;;;;;;;;;;;;;;;;;5450402;26;19952;-71
2024/04/15 09:47:01;;;;;;;;;;;;;;;;;;5449096;26;20004;-71
2024/04/15 09:49:29;;;;;;;;;;;;;;;;;;5479572;26;20015;-71
2024/04/15 09:51:55;;;;;;;;;;;;;;;;;;5466435;26;19928;-71
2024/04/15 09:54:24;;;;;;;;;;;;;;;;;;5455437;26;20264;-70
2024/04/15 09:56:50;;;;;;;;;;;;;;;;;;5453410;26;20237;-71
2024/04/15 09:59:19;;;;;;;;;;;;;;;;;;5475620;26;19935;-71
2024/04/15 10:01:45;;;;;;;;;;;;;;;;;;5464721;26;19928;-71
2024/04/15 10:04:14;;;;;;;;;;;;;;;;;;5472721;26;19935;-70
2024/04/15 10:06:40;;;;;;;;;;;;;;;;;;5480509;26;19932;-70
2024/04/15 10:09:08;;;;;;;;;;;;;;;;;;5484168;26;20018;-71
2024/04/15 10:11:35;;;;;;;;;;;;;;;;;;5477412;26;20395;-71
2024/04/15 10:14:03;;;;;;;;;;;;;;;;;;5448462;26;19936;-71
2024/04/15 10:16:30;;;;;;;;;;;;;;;;;;5474270;26;19928;-71
2024/04/15 10:18:59;;;;;;;;;;;;;;;;;;5482649;26;19935;-71
2024/04/15 10:21:25;;;;;;;;;;;;;;;;;;5482722;26;19931;-71
2024/04/15 10:23:53;;;;;;;;;;;;;;;;;;5483384;26;19928;-71
2024/04/15 10:26:22;;;;;;;;;;;;;;;;;;5463906;26;19928;-71
2024/04/15 10:28:50;;;;;;;;;;;;;;;;;;5475574;26;19928;-71
2024/04/15 10:31:17;;;;;;;;;;;;;;;;;;5484637;26;20653;-71
2024/04/15 10:33:45;;;;;;;;;;;;;;;;;;5481750;26;19928;-72
2024/04/15 10:36:11;;;;;;;;;;;;;;;;;;5460161;26;20352;-71
2024/04/15 10:38:40;;;;;;;;;;;;;;;;;;5446767;26;19928;-71
2024/04/15 10:41:06;;;;;;;;;;;;;;;;;;5463308;26;20016;-69
2024/04/15 10:43:36;;;;;;;;;;;;;;;;;;5475468;26;19936;-69
2024/04/15 10:46:02;;;;;;;;;;;;;;;;;;5468012;26;20493;-69
2024/04/15 10:48:31;;;;;;;;;;;;;;;;;;5480284;26;19956;-70
2024/04/15 10:50:57;;;;;;;;;;;;;;;;;;5472392;26;20231;-69
2024/04/15 10:53:25;;;;;;;;;;;;;;;;;;5454641;26;19928;-70
2024/04/15 10:55:52;;;;;;;;;;;;;;;;;;5461879;26;20256;-69
2024/04/15 10:58:20;;;;;;;;;;;;;;;;;;5446009;26;20727;-68
2024/04/15 11:00:46;;;;;;;;;;;;;;;;;;5450256;26;19936;-69
2024/04/15 11:03:16;;;;;;;;;;;;;;;;;;5477508;26;20275;-70
2024/04/15 11:05:42;;;;;;;;;;;;;;;;;;5481547;26;19939;-70
2024/04/15 11:08:13;;;;;;;;;;;;;;;;;;5460870;26;19928;-70
2024/04/15 11:10:39;;;;;;;;;;;;;;;;;;5453236;26;19938;-70
2024/04/15 11:13:08;;;;;;;;;;;;;;;;;;5482911;26;19936;-70
2024/04/15 11:15:34;;;;;;;;;;;;;;;;;;5467368;26;19935;-70
2024/04/15 11:18:03;;;;;;;;;;;;;;;;;;5475335;26;20060;-69
2024/04/15 11:20:29;;;;;;;;;;;;;;;;;;5481001;26;19999;-70
2024/04/15 11:22:57;;;;;;;;;;;;;;;;;;5483195;26;19928;-69
2024/04/15 11:25:23;;;;;;;;;;;;;;;;;;5473973;26;20359;-69
2024/04/15 11:27:52;;;;;;;;;;;;;;;;;;5455872;26;19961;-69
2024/04/15 11:30:19;;;;;;;;;;;;;;;;;;5453899;26;20351;-69
2024/04/15 11:32:47;;;;;;;;;;;;;;;;;;5455640;26;19935;-69
2024/04/15 11:35:13;;;;;;;;;;;;;;;;;;5471542;26;19939;-69
2024/04/15 11:37:42;;;;;;;;;;;;;;;;;;5477152;26;19940;-70
2024/04/15 11:40:08;;;;;;;;;;;;;;;;;;5478186;26;19944;-71
2024/04/15 11:42:37;;;;;;;;;;;;;;;;;;5455069;26;19928;-70
2024/04/15 11:45:03;;;;;;;;;;;;;;;;;;5449783;26;19956;-70
2024/04/15 11:47:32;;;;;;;;;;;;;;;;;;5477176;26;19939;-69
2024/04/15 11:49:58;;;;;;;;;;;;;;;;;;5458512;26;19936;-69
2024/04/15 11:52:26;;;;;;;;;;;;;;;;;;5477496;26;19960;-70
2024/04/15 11:54:52;;;;;;;;;;;;;;;;;;5469899;26;19928;-70
2024/04/15 11:57:21;;;;;;;;;;;;;;;;;;5444231;26;19933;-69
2024/04/15 11:59:47;;;;;;;;;;;;;;;;;;5461424;26;20292;-70
2024/04/15 12:02:16;;;;;;;;;;;;;;;;;;5451092;26;20528;-69
2024/04/15 12:04:42;;;;;;;;;;;;;;;;;;5482780;26;19928;-68
2024/04/15 12:07:11;;;;;;;;;;;;;;;;;;5481238;26;20358;-69
2024/04/15 12:09:37;;;;;;;;;;;;;;;;;;5462452;26;19970;-69
2024/04/15 12:12:05;;;;;;;;;;;;;;;;;;5470261;26;20497;-69
2024/04/15 12:14:32;;;;;;;;;;;;;;;;;;5466316;26;19935;-66
2024/04/15 12:17:00;;;;;;;;;;;;;;;;;;5458828;26;19942;-65
2024/04/15 12:19:26;;;;;;;;;;;;;;;;;;5463961;26;19932;-65
2024/04/15 12:21:55;;;;;;;;;;;;;;;;;;5444853;26;19929;-65
2024/04/15 12:24:22;;;;;;;;;;;;;;;;;;5446216;26;19935;-66
2024/04/15 12:26:51;;;;;;;;;;;;;;;;;;5442453;26;20356;-65
2024/04/15 12:29:17;;;;;;;;;;;;;;;;;;5461212;26;20167;-66
2024/04/15 12:31:45;;;;;;;;;;;;;;;;;;5446173;26;19939;-65
2024/04/15 12:34:12;;;;;;;;;;;;;;;;;;5443648;26;19936;-66
2024/04/15 12:36:40;;;;;;;;;;;;;;;;;;5460180;26;20342;-66
2024/04/15 12:39:06;;;;;;;;;;;;;;;;;;5477668;26;19996;-66
2024/04/15 12:41:35;;;;;;;;;;;;;;;;;;5472904;26;19928;-66
2024/04/15 12:44:01;;;;;;;;;;;;;;;;;;5473661;26;20263;-65
2024/04/15 12:46:30;;;;;;;;;;;;;;;;;;5466677;26;20050;-66
2024/04/15 12:48:56;;;;;;;;;;;;;;;;;;5462814;26;20382;-71
2024/04/15 12:51:25;;;;;;;;;;;;;;;;;;5470082;26;19934;-72
2024/04/15 12:53:51;;;;;;;;;;;;;;;;;;5476750;26;19928;-71
2024/04/15 12:56:20;;;;;;;;;;;;;;;;;;5482273;26;19992;-72
2024/04/15 12:58:46;;;;;;;;;;;;;;;;;;5469339;26;19936;-70
2024/04/15 13:01:15;;;;;;;;;;;;;;;;;;5474982;26;19928;-70
2024/04/15 13:03:41;;;;;;;;;;;;;;;;;;5479906;26;19928;-69
2024/04/15 13:06:10;;;;;;;;;;;;;;;;;;5479196;26;19936;-67
2024/04/15 13:08:36;;;;;;;;;;;;;;;;;;5469106;26;19943;-67
2024/04/15 13:11:05;;;;;;;;;;;;;;;;;;5463948;26;20053;-66
2024/04/15 13:13:31;;;;;;;;;;;;;;;;;;5472906;26;19932;-68
2024/04/15 13:16:00;;;;;;;;;;;;;;;;;;5461845;26;19936;-69
2024/04/15 13:18:26;;;;;;;;;;;;;;;;;;5446671;26;19928;-68
2024/04/15 13:20:55;;;;;;;;;;;;;;;;;;5466717;26;19936;-69
2024/04/15 13:23:21;;;;;;;;;;;;;;;;;;5442651;26;19944;-68
2024/04/15 13:25:50;;;;;;;;;;;;;;;;;;5465718;26;19943;-70
2024/04/15 13:28:16;;;;;;;;;;;;;;;;;;5462832;26;19928;-70
2024/04/15 13:30:45;;;;;;;;;;;;;;;;;;5466858;26;19929;-69
2024/04/15 13:33:11;;;;;;;;;;;;;;;;;;5452606;26;19935;-68
2024/04/15 13:35:40;;;;;;;;;;;;;;;;;;5444062;26;20382;-68
2024/04/15 13:38:06;;;;;;;;;;;;;;;;;;5445882;26;19929;-69
2024/04/15 13:40:34;;;;;;;;;;;;;;;;;;5452440;26;19944;-68
2024/04/15 13:43:01;;;;;;;;;;;;;;;;;;5462174;26;19936;-68
2024/04/15 13:45:29;;;;;;;;;;;;;;;;;;5460309;26;19932;-66
2024/04/15 13:47:55;;;;;;;;;;;;;;;;;;5445477;26;20348;-67
2024/04/15 13:50:24;;;;;;;;;;;;;;;;;;5460074;26;19996;-66
2024/04/15 13:52:50;;;;;;;;;;;;;;;;;;5477363;26;20010;-67
2024/04/15 13:55:19;;;;;;;;;;;;;;;;;;5446662;26;19929;-66
2024/04/15 13:57:45;;;;;;;;;;;;;;;;;;5464332;26;19987;-66
2024/04/15 14:00:14;;;;;;;;;;;;;;;;;;5475947;26;20002;-66
2024/04/15 14:02:40;;;;;;;;;;;;;;;;;;5469942;26;19939;-66
2024/04/15 14:05:09;;;;;;;;;;;;;;;;;;5447672;26;19928;-68
2024/04/15 14:07:35;;;;;;;;;;;;;;;;;;5472802;26;20290;-67
2024/04/15 14:10:04;;;;;;;;;;;;;;;;;;5478451;26;20374;-69
2024/04/15 14:12:30;;;;;;;;;;;;;;;;;;5478739;26;20235;-66
2024/04/15 14:14:59;;;;;;;;;;;;;;;;;;5445534;26;20002;-67
2024/04/15 14:17:25;;;;;;;;;;;;;;;;;;5466315;26;20395;-66
2024/04/15 14:19:54;;;;;;;;;;;;;;;;;;5477608;26;20042;-67
2024/04/15 14:22:20;;;;;;;;;;;;;;;;;;5455395;26;20055;-67
2024/04/15 14:24:48;;;;;;;;;;;;;;;;;;5462052;26;20382;-67
2024/04/15 14:27:14;;;;;;;;;;;;;;;;;;5480576;26;19928;-68
2024/04/15 14:29:43;;;;;;;;;;;;;;;;;;5480711;26;20335;-69
2024/04/15 14:32:09;;;;;;;;;;;;;;;;;;5460355;26;20360;-69
2024/04/15 14:34:38;;;;;;;;;;;;;;;;;;5476833;26;19962;-69
2024/04/15 14:37:04;;;;;;;;;;;;;;;;;;5481222;26;20298;-68
2024/04/15 14:39:33;;;;;;;;;;;;;;;;;;5459398;26;20463;-68
2024/04/15 14:41:59;;;;;;;;;;;;;;;;;;5456001;26;19928;-68
2024/04/15 14:44:28;;;;;;;;;;;;;;;;;;5461596;26;19927;-69
2024/04/15 14:46:54;;;;;;;;;;;;;;;;;;5446509;26;19936;-70
2024/04/15 14:49:23;;;;;;;;;;;;;;;;;;5451720;26;19997;-70
2024/04/15 14:51:49;;;;;;;;;;;;;;;;;;5459141;26;19928;-70
2024/04/15 14:54:17;;;;;;;;;;;;;;;;;;5484146;26;19939;-69
2024/04/15 14:56:50;;;;;;;;;;;;;;;;;;5464222;26;19935;-70
2024/04/15 14:59:20;;;;;;;;;;;;;;;;;;5471360;26;19928;-69
2024/04/15 15:01:46;;;;;;;;;;;;;;;;;;5481844;26;20256;-69
2024/04/15 15:04:15;;;;;;;;;;;;;;;;;;5478509;26;19936;-68
2024/04/15 15:06:41;;;;;;;;;;;;;;;;;;5455540;26;20267;-70
2024/04/15 15:09:10;;;;;;;;;;;;;;;;;;5473269;26;20009;-69
2024/04/15 15:11:36;;;;;;;;;;;;;;;;;;5462989;26;19936;-69
2024/04/15 15:14:04;;;;;;;;;;;;;;;;;;5471480;26;19935;-69
2024/04/15 15:16:30;;;;;;;;;;;;;;;;;;5464463;26;19932;-69
2024/04/15 15:18:59;;;;;;;;;;;;;;;;;;5461646;26;19932;-69
2024/04/15 15:21:28;;;;;;;;;;;;;;;;;;5462355;26;20424;-69
2024/04/15 15:23:54;;;;;;;;;;;;;;;;;;5478439;26;19928;-70
2024/04/15 15:26:23;;;;;;;;;;;;;;;;;;5479014;26;20010;-69
2024/04/15 15:28:49;;;;;;;;;;;;;;;;;;5478542;26;19928;-69
2024/04/15 15:31:18;;;;;;;;;;;;;;;;;;5461610;26;20008;-69
2024/04/15 15:33:44;;;;;;;;;;;;;;;;;;5467000;26;19967;-70
2024/04/15 15:36:13;;;;;;;;;;;;;;;;;;5476910;26;20459;-70
2024/04/15 15:38:39;;;;;;;;;;;;;;;;;;5470885;26;20418;-70
2024/04/15 15:41:08;;;;;;;;;;;;;;;;;;5452655;26;19929;-69
2024/04/15 15:43:34;;;;;;;;;;;;;;;;;;5470867;26;19935;-69
2024/04/15 15:46:02;;;;;;;;;;;;;;;;;;5445065;26;19928;-67
2024/04/15 15:48:28;;;;;;;;;;;;;;;;;;5454800;26;19928;-68
2024/04/15 15:50:57;;;;;;;;;;;;;;;;;;5472057;26;19928;-68
2024/04/15 15:53:23;;;;;;;;;;;;;;;;;;5466636;26;19928;-67
2024/04/15 15:55:52;;;;;;;;;;;;;;;;;;5462566;26;19939;-67
2024/04/15 15:58:18;;;;;;;;;;;;;;;;;;5468731;26;19928;-70
2024/04/15 16:00:46;;;;;;;;;;;;;;;;;;5457325;26;20363;-71
2024/04/15 16:03:19;;;;;;;;;;;;;;;;;;5459549;26;19939;-70
2024/04/15 16:05:48;;;;;;;;;;;;;;;;;;5463390;26;20139;-70
2024/04/15 16:08:14;;;;;;;;;;;;;;;;;;5469489;26;19927;-70
2024/04/15 16:10:42;;;;;;;;;;;;;;;;;;5467118;26;19934;-70
2024/04/15 16:13:09;;;;;;;;;;;;;;;;;;5466561;26;19939;-70
2024/04/15 16:15:38;;;;;;;;;;;;;;;;;;5472234;26;19940;-70
2024/04/15 16:18:04;;;;;;;;;;;;;;;;;;5447918;26;20379;-70
2024/04/15 16:20:32;;;;;;;;;;;;;;;;;;5480508;26;19928;-70
2024/04/15 16:22:58;;;;;;;;;;;;;;;;;;5464289;26;20661;-70
2024/04/15 16:25:27;;;;;;;;;;;;;;;;;;5457849;26;19957;-70
2024/04/15 16:27:53;;;;;;;;;;;;;;;;;;5444049;26;19928;-70
2024/04/15 16:30:22;;;;;;;;;;;;;;;;;;5452655;26;20339;-69
2024/04/15 16:32:48;;;;;;;;;;;;;;;;;;5476395;26;19935;-69
2024/04/15 16:35:18;;;;;;;;;;;;;;;;;;5470352;26;20259;-70
2024/04/15 16:37:44;;;;;;;;;;;;;;;;;;5473071;26;20267;-71
2024/04/15 16:40:13;;;;;;;;;;;;;;;;;;5458338;26;19932;-71
2024/04/15 16:42:39;;;;;;;;;;;;;;;;;;5451469;26;20050;-70
2024/04/15 16:45:07;;;;;;;;;;;;;;;;;;5464141;26;19996;-70
2024/04/15 16:47:33;;;;;;;;;;;;;;;;;;5473235;26;19932;-69